Airfield :
LOGIN :

Register | Disclaimer

   EN    FR    IT 

 










Legend :    VFR   Marginal VFR   IFR   Intensive IFR   Very Intensive IFR
Visi :
Ceiling :
>= 8 km
>= 3000ft
5 to 8 km
1000 to 3000 ft
1500m to 5 km
500 to 1000 ft
800 to 1500m
200 to 500 ft
< 800m
< 200 ft
Symbols :   Thunderstorms  Fog  Heavy snow  Heavy precipitations  Wind > 20 kt
SIGMETs :     Misc.  Thunderstorms  Icing  Turbulence  Mountain Waves  Volcanic Ashes






- Airport Elevation : 313 ft
- IATA code : LEH


LFOH - Le Havre Octeville

CURRENT METAR :
  • 012130Z AUTO 14010KT 110V170 CAVOK 12/08 Q0993

EXPIRED METARs :
  • 012100Z AUTO 15009KT 120V180 CAVOK 12/08 Q0994
  • 012030Z AUTO 16009KT CAVOK 12/08 Q0994
  • 012000Z AUTO 16009KT CAVOK 13/08 Q0995
  • 011930Z AUTO 17008KT 140V200 CAVOK 13/08 Q0996
  • 011900Z AUTO 17009KT 140V200 CAVOK 13/08 Q0996

TAF TAF LFOH
Valid from the 01 at 12:00 until the 02 at 12:00 UTC


011100Z 0112/0212 26013KT 9999 SCT020
TEMPO 0112/0118 26020G30KT 3000 SHRA BKN015CB
BECMG 0114/0117 20010KT
BECMG 0123/0202 11025G40KT RA BKN013
BECMG 0202/0204 17020G35KT NSW BKN020
BECMG 0205/0208 18015G25KT
ATIS : +33 2 35 54 64 93



MET'MAP, your aeronautical weather chart ! - Copyright ORBIFLY December 2007 - Disclaimer

ORBIFLY MET'MAP TEAM :

Programming & Development : Alexandra Zaïnal
Concept & original design : Baudouin d'Aumeries
Assistance for programming : Marc-Olivier Méhu
Technical & hardware support : Manuel Goepfert

Contact : metmap@orbifly.com




SOURCES & CREDITS :

   NOAA